createdAt,value
2019-04-23T00:01:29.543Z,49.68
2019-04-23T00:04:04.192Z,49.67
2019-04-23T00:06:53.774Z,50.06
2019-04-23T00:09:06.786Z,49.39
2019-04-23T00:13:58.126Z,48.83
2019-04-23T00:16:30.136Z,49.64
2019-04-23T00:18:58.968Z,49.55
2019-04-23T00:21:45.933Z,49.38
2019-04-23T00:25:04.646Z,49.51
2019-04-23T00:27:18.796Z,50.65
2019-04-23T00:29:37.014Z,50.96
2019-04-23T00:32:10.732Z,50.96
2019-04-23T00:34:41.401Z,50.76
2019-04-23T00:37:11.808Z,52.57
2019-04-23T00:39:40.755Z,53.09
2019-04-23T00:42:06.682Z,51.92
2019-04-23T00:44:40.077Z,52.23
2019-04-23T00:47:14.309Z,51.61
2019-04-23T00:49:39.923Z,53.17
2019-04-23T00:52:09.553Z,53.12
2019-04-23T00:54:44.027Z,54.06
2019-04-23T00:57:16.378Z,53.58
2019-04-23T01:02:12.960Z,53.41
2019-04-23T01:04:41.806Z,53.10
2019-04-23T01:07:09.573Z,52.28
2019-04-23T01:09:48.830Z,52.58
2019-04-23T01:12:18.563Z,52.18
2019-04-23T01:14:39.743Z,51.87
2019-04-23T01:17:18.576Z,51.35
2019-04-23T01:19:56.169Z,50.80
2019-04-23T01:22:08.290Z,50.70
2019-04-23T01:25:04.704Z,51.23
2019-04-23T01:27:55.806Z,51.67
2019-04-23T01:30:19.793Z,51.37
2019-04-23T01:32:49.764Z,52.29
2019-04-23T01:35:20.399Z,51.47
2019-04-23T01:37:49.334Z,51.68
2019-04-23T01:40:26.860Z,51.71
2019-04-23T01:42:56.152Z,51.59
2019-04-23T01:45:24.259Z,51.85
2019-04-23T02:02:55.938Z,52.62
2019-04-23T02:07:58.722Z,53.48
2019-04-23T02:10:32.938Z,53.91
2019-04-23T02:12:55.602Z,55.26
2019-04-23T02:15:23.464Z,55.79
2019-04-23T02:18:02.160Z,56.80
2019-04-23T02:23:09.816Z,57.51
2019-04-23T02:25:42.267Z,58.18
2019-04-23T02:33:27.288Z,59.35
2019-04-23T02:40:46.833Z,60.28
2019-04-23T02:45:39.843Z,61.74
2019-04-23T02:48:10.525Z,62.35
2019-04-23T02:53:05.239Z,63.18
2019-04-23T02:55:43.071Z,63.85
2019-04-23T02:58:16.628Z,64.12
2019-04-23T03:00:43.465Z,65.30
2019-04-23T03:03:25.144Z,65.31
2019-04-23T03:05:46.716Z,65.97
2019-04-23T03:10:43.269Z,66.19
2019-04-23T03:13:19.772Z,65.88
2019-04-23T03:21:00.438Z,65.75
2019-04-23T03:28:37.690Z,66.31
2019-04-23T03:38:42.934Z,67.52
2019-04-23T03:43:39.181Z,67.92
2019-04-23T03:48:41.746Z,68.61
2019-04-23T03:50:58.293Z,68.83
2019-04-23T03:53:56.536Z,69.20
2019-04-23T04:04:03.856Z,70.01
2019-04-23T04:06:16.354Z,69.50
2019-04-23T04:08:29.511Z,69.21
2019-04-23T04:11:11.503Z,69.21
2019-04-23T04:16:05.052Z,70.00
2019-04-23T04:18:38.823Z,70.29
2019-04-23T04:23:33.298Z,70.17
2019-04-23T04:28:51.055Z,70.62
2019-04-23T04:33:58.517Z,69.96
2019-04-23T04:38:44.926Z,69.90
2019-04-23T04:46:17.347Z,70.20
2019-04-23T04:48:45.788Z,69.88
2019-04-23T04:51:11.405Z,69.61
2019-04-23T04:56:26.941Z,70.26
2019-04-23T04:58:43.404Z,70.27
2019-04-23T05:03:28.498Z,69.21
2019-04-23T05:06:18.603Z,69.40
2019-04-23T05:11:11.329Z,69.05
2019-04-23T05:13:41.424Z,68.75
2019-04-23T05:16:07.629Z,68.57
2019-04-23T05:18:46.764Z,68.89
2019-04-23T05:26:17.846Z,68.19
2019-04-23T05:28:49.129Z,68.02
2019-04-23T05:31:14.105Z,68.82
2019-04-23T05:33:39.135Z,68.25
2019-04-23T05:36:20.166Z,68.02
2019-04-23T05:39:00.906Z,67.68
2019-04-23T05:41:20.007Z,67.92
2019-04-23T05:43:40.945Z,68.12
2019-04-23T05:46:17.970Z,67.12
2019-04-23T05:48:37.614Z,66.85
2019-04-23T05:56:15.603Z,66.47
2019-04-23T05:58:46.822Z,65.83
2019-04-23T06:01:41.707Z,65.35
2019-04-23T06:03:56.928Z,65.17
2019-04-23T06:06:29.390Z,65.56
2019-04-23T06:08:53.216Z,65.36
2019-04-23T06:11:30.808Z,64.49
2019-04-23T06:14:02.046Z,64.38
2019-04-23T06:16:28.840Z,64.58
2019-04-23T06:18:59.270Z,64.58
2019-04-23T06:21:24.786Z,63.78
2019-04-23T06:23:52.104Z,63.99
2019-04-23T06:28:59.046Z,64.43
2019-04-23T06:31:26.574Z,62.49
2019-04-23T06:33:58.583Z,62.29
2019-04-23T06:36:30.743Z,62.05
2019-04-23T06:41:29.129Z,62.53
2019-04-23T06:44:06.054Z,62.23
2019-04-23T06:46:39.593Z,61.16
2019-04-23T06:49:00.864Z,60.98
2019-04-23T06:51:37.819Z,60.20
2019-04-23T06:54:00.040Z,59.81
2019-04-23T06:56:40.116Z,60.11
2019-04-23T06:59:08.942Z,60.11
2019-04-23T07:01:36.139Z,59.72
2019-04-23T07:04:05.556Z,59.49
2019-04-23T07:09:12.153Z,60.01
2019-04-23T07:11:44.776Z,58.98
2019-04-23T07:16:34.734Z,59.82
2019-04-23T07:19:04.265Z,57.37
2019-04-23T07:21:27.804Z,57.10
2019-04-23T07:26:37.308Z,57.34
2019-04-23T07:28:59.974Z,57.15
2019-04-23T07:31:50.049Z,56.66
2019-04-23T07:34:01.187Z,56.70
2019-04-23T07:36:36.154Z,56.51
2019-04-23T07:41:47.869Z,56.94
2019-04-23T07:44:35.544Z,56.20
2019-04-23T07:47:15.699Z,56.78
2019-04-23T07:49:37.893Z,54.51
2019-04-23T07:57:13.501Z,55.20
2019-04-23T07:59:45.414Z,53.43
2019-04-23T08:02:13.945Z,52.76
2019-04-23T08:04:44.661Z,53.00
2019-04-23T08:09:49.403Z,54.31
2019-04-23T08:14:41.893Z,53.57
2019-04-23T08:17:10.397Z,53.13
2019-04-23T08:19:49.637Z,51.88
2019-04-23T08:22:20.721Z,52.32
2019-04-23T08:25:01.184Z,51.85
2019-04-23T08:27:17.780Z,51.58
2019-04-23T08:29:50.790Z,51.79
2019-04-23T08:32:19.393Z,51.21
2019-04-23T08:34:58.850Z,50.76
2019-04-23T08:37:45.210Z,50.66
2019-04-23T08:40:09.714Z,50.12
2019-04-23T08:45:16.754Z,50.21
2019-04-23T08:47:49.103Z,49.28
2019-04-23T08:50:18.859Z,49.01
2019-04-23T08:52:46.051Z,50.87
2019-04-23T08:55:16.929Z,50.19
2019-04-23T08:57:43.964Z,50.46
2019-04-23T09:00:17.943Z,48.93
2019-04-23T09:02:54.098Z,51.47
2019-04-23T09:05:16.492Z,49.87
2019-04-23T09:07:57.264Z,48.66
2019-04-23T09:10:22.637Z,47.94
2019-04-23T09:13:27.079Z,49.65
2019-04-23T09:15:26.357Z,48.85
2019-04-23T09:17:56.219Z,47.68
2019-04-23T09:20:21.851Z,49.28
2019-04-23T09:22:45.159Z,50.35
2019-04-23T09:25:30.915Z,51.34
2019-04-23T09:27:45.357Z,47.14
2019-04-23T09:30:23.317Z,48.06
2019-04-23T09:32:53.863Z,47.01
2019-04-23T09:35:27.838Z,48.39
2019-04-23T09:38:11.683Z,47.03
2019-04-23T09:41:42.086Z,45.38
2019-04-23T09:43:36.723Z,48.02
2019-04-23T09:48:44.222Z,50.26
2019-04-23T09:51:10.324Z,45.81
2019-04-23T09:53:40.030Z,43.34
2019-04-23T09:56:19.789Z,44.47
2019-04-23T09:58:43.320Z,44.97
2019-04-23T10:01:23.477Z,44.93
2019-04-23T10:03:38.491Z,44.75
2019-04-23T10:06:03.398Z,45.01
2019-04-23T10:08:30.831Z,44.36
2019-04-23T10:10:53.347Z,43.73
2019-04-23T10:13:22.053Z,45.58
2019-04-23T10:15:52.069Z,43.79
2019-04-23T10:18:20.520Z,44.49
2019-04-23T10:20:48.809Z,42.67
2019-04-23T10:23:17.008Z,44.48
2019-04-23T10:25:45.796Z,43.47
2019-04-23T10:28:22.956Z,44.38
2019-04-23T10:30:51.570Z,42.26
2019-04-23T10:33:21.215Z,44.79
2019-04-23T10:35:58.415Z,43.30
2019-04-23T10:38:21.844Z,46.13
2019-04-23T10:40:50.152Z,42.98
2019-04-23T10:43:20.589Z,42.95
2019-04-23T10:46:35.094Z,42.35
2019-04-23T10:49:22.502Z,41.76
2019-04-23T10:59:35.139Z,42.27
2019-04-23T11:02:24.451Z,41.10
2019-04-23T11:04:47.319Z,41.67
2019-04-23T11:07:25.450Z,43.00
2019-04-23T11:12:32.517Z,40.15
2019-04-23T11:15:02.047Z,40.61
2019-04-23T11:19:56.940Z,41.27
2019-04-23T11:24:59.991Z,41.81
2019-04-23T11:27:28.018Z,41.15
2019-04-23T11:30:03.977Z,40.01
2019-04-23T11:37:34.801Z,38.58
2019-04-23T11:40:04.058Z,41.76
2019-04-23T11:44:56.445Z,40.28
2019-04-23T11:47:46.975Z,40.49
2019-04-23T11:51:13.057Z,40.32
2019-04-23T11:52:34.479Z,38.23
2019-04-23T11:54:53.671Z,38.76
2019-04-23T11:59:53.416Z,39.76
2019-04-23T12:02:32.605Z,38.55
2019-04-23T12:05:21.713Z,38.80
2019-04-23T12:08:01.517Z,41.59
2019-04-23T12:10:47.909Z,40.73
2019-04-23T12:13:12.006Z,37.91
2019-04-23T12:18:19.963Z,40.54
2019-04-23T12:23:24.008Z,38.00
2019-04-23T12:25:47.633Z,39.13
2019-04-23T12:28:14.095Z,38.86
2019-04-23T12:30:45.425Z,38.71
2019-04-23T12:33:20.650Z,41.75
2019-04-23T12:35:40.455Z,37.71
2019-04-23T12:38:20.510Z,38.18
2019-04-23T12:40:38.175Z,38.54
2019-04-23T12:43:17.462Z,38.64
2019-04-23T12:45:50.557Z,38.15
2019-04-23T12:53:21.409Z,38.97
2019-04-23T12:55:48.138Z,39.13
2019-04-23T12:58:17.874Z,38.45
2019-04-23T13:00:51.404Z,38.27
2019-04-23T13:03:16.948Z,39.29
2019-04-23T13:05:33.873Z,38.96
2019-04-23T13:13:35.191Z,38.88
2019-04-23T13:15:40.511Z,38.02
2019-04-23T13:20:38.478Z,37.14
2019-04-23T13:23:16.479Z,37.15
2019-04-23T13:25:56.161Z,37.15
2019-04-23T13:28:21.222Z,35.43
2019-04-23T13:33:27.939Z,37.81
2019-04-23T13:36:01.084Z,39.34
2019-04-23T13:38:28.543Z,37.12
2019-04-23T13:40:55.593Z,36.76
2019-04-23T13:43:30.391Z,36.13
2019-04-23T13:48:18.325Z,38.18
2019-04-23T13:51:09.851Z,38.41
2019-04-23T13:55:47.204Z,36.37
2019-04-23T13:58:34.383Z,35.96
2019-04-23T14:03:30.814Z,36.77
2019-04-23T14:06:04.933Z,36.74
2019-04-23T14:08:41.663Z,37.55
2019-04-23T14:11:03.632Z,36.77
2019-04-23T14:13:44.097Z,37.18
2019-04-23T14:21:08.450Z,36.68
2019-04-23T14:28:44.690Z,39.05
2019-04-23T14:31:04.711Z,39.05
2019-04-23T14:41:21.259Z,37.84
2019-04-23T14:43:38.796Z,38.51
2019-04-23T14:51:14.846Z,39.78
2019-04-23T14:53:40.637Z,40.11
2019-04-23T14:56:14.812Z,40.71
2019-04-23T14:58:42.555Z,40.72
2019-04-23T15:01:24.665Z,41.02
2019-04-23T15:11:20.869Z,40.82
2019-04-23T15:13:44.543Z,40.75
2019-04-23T15:18:55.124Z,43.25
2019-04-23T15:21:43.321Z,42.34
2019-04-23T15:28:20.279Z,43.65
2019-04-23T15:31:21.242Z,42.68
2019-04-23T15:33:56.924Z,44.16
2019-04-23T15:38:53.725Z,42.16
2019-04-23T15:41:15.270Z,42.26
2019-04-23T15:43:53.253Z,42.39
2019-04-23T15:46:21.515Z,43.60
2019-04-23T15:48:58.262Z,42.39
2019-04-23T15:51:21.897Z,42.68
2019-04-23T15:53:44.428Z,41.89
2019-04-23T15:56:23.232Z,41.89
2019-04-23T15:58:58.332Z,43.03
2019-04-23T16:03:22.152Z,42.18
2019-04-23T16:05:51.039Z,42.18
2019-04-23T16:08:59.439Z,41.76
2019-04-23T16:11:33.261Z,42.68
2019-04-23T16:14:04.620Z,42.38
2019-04-23T16:16:25.632Z,42.08
2019-04-23T16:19:05.333Z,42.32
2019-04-23T16:21:35.924Z,43.25
2019-04-23T16:24:01.215Z,42.75
2019-04-23T16:26:32.570Z,42.75
2019-04-23T16:34:17.809Z,42.46
2019-04-23T16:36:32.851Z,43.22
2019-04-23T16:39:07.454Z,43.57
2019-04-23T16:41:39.894Z,43.63
2019-04-23T16:44:18.386Z,43.67
2019-04-23T16:46:33.426Z,44.61
2019-04-23T16:49:10.186Z,44.25
2019-04-23T16:51:32.731Z,44.98
2019-04-23T16:54:09.650Z,45.47
2019-04-23T16:59:18.496Z,45.87
2019-04-23T17:01:39.628Z,46.47
2019-04-23T17:04:13.682Z,46.44
2019-04-23T17:06:39.538Z,46.33
2019-04-23T17:11:34.029Z,46.54
2019-04-23T17:14:09.957Z,46.35
2019-04-23T17:16:38.225Z,46.74
2019-04-23T17:19:10.685Z,47.15
2019-04-23T17:21:38.998Z,46.53
2019-04-23T17:24:15.423Z,47.07
2019-04-23T17:26:37.429Z,46.97
2019-04-23T17:31:46.334Z,46.99
2019-04-23T17:34:21.743Z,46.63
2019-04-23T17:36:45.778Z,46.96
2019-04-23T17:39:18.878Z,47.29
2019-04-23T17:47:20.400Z,48.64
2019-04-23T17:49:51.144Z,47.88
2019-04-23T17:52:20.357Z,48.29
2019-04-23T17:54:48.421Z,47.79
2019-04-23T17:57:18.726Z,48.08
2019-04-23T18:02:40.859Z,49.04
2019-04-23T18:04:56.212Z,48.23
2019-04-23T18:07:34.002Z,49.12
2019-04-23T18:10:08.629Z,48.85
2019-04-23T18:12:31.106Z,48.63
2019-04-23T18:14:43.884Z,48.37
2019-04-23T18:20:12.954Z,49.00
2019-04-23T18:22:47.103Z,48.97
2019-04-23T18:25:36.842Z,49.47
2019-04-23T18:27:50.849Z,49.38
2019-04-23T18:30:44.606Z,48.88
2019-04-23T18:35:36.083Z,49.24
2019-04-23T18:41:02.371Z,50.20
2019-04-23T18:43:21.521Z,50.22
2019-04-23T18:48:40.625Z,50.42
2019-04-23T18:51:01.139Z,51.06
2019-04-23T18:58:37.728Z,50.80
2019-04-23T19:01:16.032Z,51.08
2019-04-23T19:09:04.308Z,50.68
2019-04-23T19:11:37.188Z,50.94
2019-04-23T19:14:03.101Z,51.00
2019-04-23T19:16:25.294Z,51.19
2019-04-23T19:18:58.120Z,51.82
2019-04-23T19:21:45.724Z,52.91
2019-04-23T19:23:54.703Z,53.24
2019-04-23T19:26:51.597Z,54.02
2019-04-23T19:28:55.653Z,54.09
2019-04-23T19:36:58.618Z,54.83
2019-04-23T19:41:57.450Z,53.67
2019-04-23T19:44:18.207Z,53.64
2019-04-23T19:47:00.354Z,54.02
2019-04-23T19:49:19.620Z,53.21
2019-04-23T19:51:56.460Z,53.31
2019-04-23T19:54:28.343Z,54.61
2019-04-23T19:59:23.480Z,54.96
2019-04-23T20:01:47.250Z,54.69
2019-04-23T20:04:16.120Z,54.41
2019-04-23T20:07:04.367Z,53.64
2019-04-23T20:11:55.992Z,53.65
2019-04-23T20:14:18.423Z,53.48
2019-04-23T20:17:16.388Z,53.15
2019-04-23T20:19:18.786Z,53.12
2019-04-23T20:21:50.924Z,53.28
2019-04-23T20:26:49.321Z,53.45
2019-04-23T20:29:45.403Z,52.87
2019-04-23T20:35:00.351Z,53.44
2019-04-23T20:37:07.900Z,53.55
2019-04-23T20:39:45.411Z,53.41
2019-04-23T20:49:45.747Z,53.52
2019-04-23T21:03:00.341Z,53.96
2019-04-23T21:05:10.043Z,54.60
2019-04-23T21:12:57.518Z,54.77
2019-04-23T21:15:19.873Z,54.45
2019-04-23T21:17:52.649Z,54.94
2019-04-23T21:22:44.865Z,54.64
2019-04-23T21:25:08.293Z,54.49
2019-04-23T21:30:49.101Z,55.12
2019-04-23T21:33:06.828Z,54.96
2019-04-23T21:36:11.082Z,54.83
2019-04-23T21:40:15.437Z,54.93
2019-04-23T21:41:35.243Z,54.93
2019-04-23T21:46:27.710Z,55.41
2019-04-23T21:49:10.657Z,55.30
2019-04-23T21:51:41.973Z,55.64
2019-04-23T21:53:56.369Z,55.87
2019-04-23T21:59:06.903Z,55.57
2019-04-23T22:01:32.342Z,55.56
2019-04-23T22:04:08.581Z,55.92
2019-04-23T22:09:08.680Z,56.43
2019-04-23T22:14:05.611Z,56.03
2019-04-23T22:16:36.995Z,56.05
2019-04-23T22:21:36.726Z,56.80
2019-04-23T22:24:04.304Z,56.77
2019-04-23T22:26:41.879Z,56.72
2019-04-23T22:36:29.705Z,57.27
2019-04-23T22:41:40.057Z,56.88
2019-04-23T22:44:07.513Z,56.91
2019-04-23T22:46:35.448Z,57.08
2019-04-23T22:49:13.726Z,57.91
2019-04-23T22:51:41.737Z,57.40
2019-04-23T22:54:07.026Z,57.86
2019-04-23T22:56:35.449Z,58.24
2019-04-23T22:59:18.614Z,58.24
2019-04-23T23:01:51.259Z,57.47
2019-04-23T23:04:15.624Z,57.43
2019-04-23T23:06:50.663Z,57.69
2019-04-23T23:09:18.970Z,58.47
2019-04-23T23:11:49.819Z,58.13
2019-04-23T23:14:17.173Z,58.82
2019-04-23T23:16:44.976Z,58.42
2019-04-23T23:19:25.143Z,58.56
2019-04-23T23:21:54.526Z,59.10
2019-04-23T23:26:50.339Z,58.17
2019-04-23T23:29:05.930Z,58.94
2019-04-23T23:31:43.690Z,58.88
2019-04-23T23:36:51.455Z,58.51
2019-04-23T23:39:17.795Z,58.21
2019-04-23T23:41:53.852Z,59.13
2019-04-23T23:46:46.228Z,58.65
2019-04-23T23:51:46.812Z,59.18
2019-04-23T23:54:13.941Z,59.02
2019-04-23T23:56:50.103Z,59.22
